Time;durP1;ratioP1;P1;durP2;ratioP2;P2;SDS_P1;SDS_P2;PMS_P1;PMS_P2;Temp;Humidity;BMP_temperature;BMP_pressure;BME280_temperature;BME280_humidity;BME280_pressure;Samples;Min_cycle;Max_cycle;Signal;HPM_P1;HPM_P2
2022/12/15 06:00:16;;;;;;;36.07;28.93;;;2.40;97.20;;;;;;1720526;28;20584;-75
2022/12/15 06:01:08;;;;;;;37.60;29.40;;;2.40;97.20;;;;;;1717317;28;20201;-75
2022/12/15 06:02:00;;;;;;;36.22;30.10;;;2.40;97.20;;;;;;1719360;28;20626;-75
2022/12/15 06:02:51;;;;;;;38.58;29.42;;;2.40;97.20;;;;;;1720963;28;20204;-75
2022/12/15 06:03:42;;;;;;;35.97;28.97;;;2.40;97.20;;;;;;1720887;28;20215;-75
2022/12/15 06:04:33;;;;;;;36.72;29.73;;;2.40;97.20;;;;;;1720888;28;20448;-75
2022/12/15 06:05:25;;;;;;;35.47;30.73;;;2.40;97.20;;;;;;1720805;28;20208;-74
2022/12/15 06:06:16;;;;;;;37.53;30.08;;;2.40;97.20;;;;;;1720772;28;20197;-75
2022/12/15 06:07:08;;;;;;;33.97;29.15;;;2.40;97.20;;;;;;1720663;28;20200;-75
2022/12/15 06:07:59;;;;;;;35.47;30.55;;;2.40;97.20;;;;;;1721035;28;20208;-75
2022/12/15 06:08:51;;;;;;;38.60;30.90;;;2.40;97.20;;;;;;1720786;28;20235;-78
2022/12/15 06:09:41;;;;;;;35.08;28.15;;;2.40;97.20;;;;;;1720743;28;20616;-75
2022/12/15 06:10:33;;;;;;;36.43;28.67;;;2.40;97.20;;;;;;1720283;28;20614;-75
2022/12/15 06:11:24;;;;;;;40.85;31.13;;;2.40;97.20;;;;;;1720738;28;20209;-75
2022/12/15 06:12:15;;;;;;;37.77;31.03;;;2.40;97.20;;;;;;1721008;28;20207;-75
2022/12/15 06:13:06;;;;;;;35.97;28.42;;;2.40;97.20;;;;;;1720930;28;20550;-75
2022/12/15 06:13:58;;;;;;;38.10;30.50;;;2.40;97.20;;;;;;1721065;28;20640;-75
2022/12/15 06:14:48;;;;;;;34.90;28.90;;;2.40;97.20;;;;;;1720946;28;20197;-75
2022/12/15 06:15:41;;;;;;;34.60;29.10;;;2.40;97.20;;;;;;1720960;28;20205;-75
2022/12/15 06:16:32;;;;;;;37.03;29.55;;;2.40;97.20;;;;;;1720965;28;20208;-75
2022/12/15 06:17:24;;;;;;;37.60;29.60;;;2.40;97.20;;;;;;1720758;28;20201;-75
2022/12/15 06:18:15;;;;;;;41.20;30.80;;;2.40;97.20;;;;;;1721004;28;20204;-75
2022/12/15 06:19:07;;;;;;;35.67;28.50;;;2.40;97.20;;;;;;1720653;28;20200;-75
2022/12/15 06:19:58;;;;;;;36.25;28.17;;;2.40;97.20;;;;;;1720421;28;20213;-75
2022/12/15 06:20:51;;;;;;;37.20;30.43;;;2.40;97.20;;;;;;1720827;28;20260;-75
2022/12/15 06:21:41;;;;;;;39.80;30.13;;;2.40;97.20;;;;;;1720490;28;20305;-74
2022/12/15 06:22:33;;;;;;;36.53;30.20;;;2.40;97.20;;;;;;1720997;28;20268;-74
2022/12/15 06:23:24;;;;;;;39.35;30.08;;;2.40;97.20;;;;;;1720794;28;20231;-74
2022/12/15 06:24:16;;;;;;;35.60;29.80;;;2.40;97.20;;;;;;1721004;28;20659;-74
2022/12/15 06:25:08;;;;;;;34.75;28.83;;;2.40;97.20;;;;;;1720737;28;20201;-74
2022/12/15 06:26:00;;;;;;;40.10;29.90;;;2.40;97.20;;;;;;1720936;28;20292;-74
2022/12/15 06:26:51;;;;;;;36.85;29.55;;;2.40;97.20;;;;;;1720731;28;20209;-74
2022/12/15 06:27:43;;;;;;;34.33;28.60;;;2.40;97.20;;;;;;1720875;28;20219;-74
2022/12/15 06:28:33;;;;;;;38.15;29.52;;;2.40;97.20;;;;;;1720541;28;20216;-74
2022/12/15 06:29:25;;;;;;;37.70;28.83;;;2.40;97.20;;;;;;1720793;28;20201;-74
2022/12/15 06:30:17;;;;;;;36.05;29.90;;;2.40;97.20;;;;;;1720241;28;20208;-74
2022/12/15 06:31:12;;;;;;;39.60;30.65;;;2.40;97.20;;;;;;1720675;28;20201;-74
2022/12/15 06:32:03;;;;;;;32.83;27.60;;;2.40;97.20;;;;;;1720764;28;20247;-75
2022/12/15 06:32:55;;;;;;;36.65;29.58;;;2.40;97.20;;;;;;1720774;28;20567;-75
2022/12/15 06:33:46;;;;;;;41.70;31.30;;;2.40;97.20;;;;;;1720673;28;20205;-75
2022/12/15 06:34:38;;;;;;;35.13;29.33;;;2.40;97.20;;;;;;1721581;28;20201;-76
2022/12/15 06:35:28;;;;;;;35.17;30.25;;;2.40;97.20;;;;;;1727008;28;20204;-75
2022/12/15 06:36:22;;;;;;;33.70;28.63;;;2.40;97.20;;;;;;1727558;28;20670;-76
2022/12/15 06:37:13;;;;;;;38.83;30.42;;;2.40;97.20;;;;;;1727153;28;20213;-75
2022/12/15 06:38:05;;;;;;;36.53;29.43;;;2.40;97.20;;;;;;1727479;28;20232;-75
2022/12/15 06:38:57;;;;;;;34.40;28.38;;;2.40;97.20;;;;;;1723710;28;20206;-75
2022/12/15 06:39:49;;;;;;;38.40;30.88;;;2.40;97.20;;;;;;1720337;28;20216;-75
2022/12/15 06:40:40;;;;;;;35.72;29.73;;;2.40;97.20;;;;;;1720199;28;20585;-75
2022/12/15 06:41:32;;;;;;;36.88;30.33;;;2.30;97.20;;;;;;1720622;28;20212;-75
2022/12/15 06:42:23;;;;;;;39.88;29.73;;;2.30;97.20;;;;;;1720767;28;20201;-74
2022/12/15 06:43:15;;;;;;;41.00;30.40;;;2.30;97.20;;;;;;1720699;28;20207;-75
2022/12/15 06:44:06;;;;;;;37.03;28.85;;;2.30;97.20;;;;;;1720608;28;20316;-73
2022/12/15 06:44:57;;;;;;;41.73;30.87;;;2.30;97.20;;;;;;1720422;28;20197;-74
2022/12/15 06:45:48;;;;;;;36.63;28.63;;;2.40;97.20;;;;;;1720649;28;20474;-74
2022/12/15 06:46:43;;;;;;;39.42;30.85;;;2.40;97.20;;;;;;1717545;28;20202;-73
2022/12/15 06:47:33;;;;;;;37.25;28.45;;;2.40;97.20;;;;;;1719939;28;20208;-75
2022/12/15 06:48:25;;;;;;;36.70;30.03;;;2.40;97.20;;;;;;1720220;28;20211;-75
2022/12/15 06:49:16;;;;;;;42.90;30.98;;;2.40;97.20;;;;;;1720718;28;20201;-75
2022/12/15 06:50:08;;;;;;;36.23;29.63;;;2.40;97.20;;;;;;1720176;28;20207;-75
2022/12/15 06:51:02;;;;;;;36.55;29.05;;;2.40;97.20;;;;;;1720510;28;20232;-75
2022/12/15 06:51:54;;;;;;;38.70;29.42;;;2.40;97.20;;;;;;1720667;28;20224;-75
2022/12/15 06:52:45;;;;;;;34.10;28.05;;;2.40;97.20;;;;;;1720799;28;20220;-74
2022/12/15 06:53:39;;;;;;;34.83;29.23;;;2.40;97.20;;;;;;1720597;28;20296;-75
2022/12/15 06:54:30;;;;;;;39.83;30.42;;;2.40;97.20;;;;;;1720540;28;20296;-76
2022/12/15 06:55:22;;;;;;;40.43;30.20;;;2.40;97.20;;;;;;1720712;28;20208;-75
2022/12/15 06:56:16;;;;;;;43.85;31.25;;;2.40;97.20;;;;;;1720619;28;20201;-74
2022/12/15 06:57:08;;;;;;;35.20;28.85;;;2.40;97.20;;;;;;1719954;28;20197;-74
2022/12/15 06:57:58;;;;;;;35.55;28.90;;;2.40;97.20;;;;;;1719139;28;20201;-75
2022/12/15 06:58:52;;;;;;;33.80;27.93;;;2.40;97.20;;;;;;1720310;28;20208;-75
2022/12/15 06:59:43;;;;;;;39.00;28.75;;;2.40;97.20;;;;;;1720572;28;20212;-75
2022/12/15 07:00:36;;;;;;;38.30;30.47;;;2.40;97.20;;;;;;1720040;28;20229;-74
2022/12/15 07:01:26;;;;;;;40.78;30.15;;;2.40;97.20;;;;;;1720344;28;20451;-74
2022/12/15 07:02:20;;;;;;;39.73;29.27;;;2.40;97.20;;;;;;1720717;28;20205;-75
2022/12/15 07:03:14;;;;;;;39.45;30.70;;;2.40;97.20;;;;;;1720490;28;20209;-75
2022/12/15 07:04:06;;;;;;;38.92;28.02;;;2.40;97.20;;;;;;1720616;28;20205;-75
2022/12/15 07:04:56;;;;;;;38.35;30.85;;;2.40;97.20;;;;;;1720541;28;20201;-75
2022/12/15 07:05:48;;;;;;;40.73;30.43;;;2.40;97.20;;;;;;1720540;28;20200;-75
2022/12/15 07:06:39;;;;;;;42.17;31.02;;;2.40;97.20;;;;;;1720336;28;20212;-75
2022/12/15 07:07:31;;;;;;;44.35;30.63;;;2.40;97.20;;;;;;1720544;28;20725;-75
2022/12/15 07:08:22;;;;;;;39.10;30.90;;;2.40;97.20;;;;;;1720231;28;20205;-75
2022/12/15 07:09:16;;;;;;;44.70;29.80;;;2.40;97.20;;;;;;1720532;28;20252;-75
2022/12/15 07:10:08;;;;;;;47.83;29.73;;;2.40;97.20;;;;;;1719808;28;20556;-75
2022/12/15 07:10:59;;;;;;;44.28;29.50;;;2.40;97.20;;;;;;1713755;28;20217;-74
2022/12/15 07:11:51;;;;;;;39.08;29.52;;;2.40;97.20;;;;;;1713785;28;20208;-73
2022/12/15 07:12:42;;;;;;;42.10;30.27;;;2.40;97.20;;;;;;1713715;28;20352;-74
2022/12/15 07:13:34;;;;;;;45.50;29.20;;;2.40;97.20;;;;;;1713807;28;20285;-74
2022/12/15 07:14:26;;;;;;;35.40;29.65;;;2.40;97.20;;;;;;1713895;28;20271;-75
2022/12/15 07:15:17;;;;;;;40.35;29.00;;;2.40;97.20;;;;;;1713851;28;20225;-75
2022/12/15 07:16:11;;;;;;;42.20;29.63;;;2.40;97.20;;;;;;1713872;28;20208;-75
2022/12/15 07:17:01;;;;;;;38.35;29.83;;;2.40;97.20;;;;;;1713638;28;20226;-75
2022/12/15 07:17:56;;;;;;;37.73;28.10;;;2.40;97.20;;;;;;1713690;28;20202;-75
2022/12/15 07:18:47;;;;;;;40.35;29.45;;;2.40;97.20;;;;;;1717925;28;20879;-75
2022/12/15 07:19:39;;;;;;;39.13;28.85;;;2.40;97.20;;;;;;1720459;28;20205;-75
2022/12/15 07:20:29;;;;;;;37.95;29.55;;;2.40;97.20;;;;;;1719866;28;20674;-75
2022/12/15 07:21:21;;;;;;;39.47;30.10;;;2.40;97.20;;;;;;1720324;28;20661;-75
2022/12/15 07:22:12;;;;;;;43.78;30.20;;;2.40;97.20;;;;;;1720524;28;20561;-75
2022/12/15 07:23:06;;;;;;;44.63;29.73;;;2.40;97.20;;;;;;1720447;28;20569;-75
2022/12/15 07:23:58;;;;;;;38.58;30.45;;;2.40;97.20;;;;;;1720581;28;20227;-74
2022/12/15 07:24:49;;;;;;;39.50;31.08;;;2.40;97.20;;;;;;1720525;28;20212;-75
2022/12/15 07:25:40;;;;;;;39.50;31.23;;;2.50;97.20;;;;;;1720454;28;20197;-75
2022/12/15 07:26:33;;;;;;;37.75;30.25;;;2.50;97.20;;;;;;1720504;28;20561;-75
2022/12/15 07:27:24;;;;;;;40.92;30.50;;;2.40;97.20;;;;;;1720323;28;20205;-75
2022/12/15 07:28:16;;;;;;;35.67;28.60;;;2.40;97.20;;;;;;1719995;28;20204;-75
2022/12/15 07:29:07;;;;;;;38.72;30.88;;;2.40;97.20;;;;;;1713160;28;20268;-75
2022/12/15 07:29:58;;;;;;;39.50;31.13;;;2.40;97.20;;;;;;1714789;28;20209;-75
2022/12/15 07:30:49;;;;;;;38.75;30.30;;;2.40;97.20;;;;;;1720070;28;20594;-75
2022/12/15 07:31:41;;;;;;;37.07;29.70;;;2.40;97.20;;;;;;1720231;28;20205;-75
2022/12/15 07:32:32;;;;;;;38.00;30.85;;;2.40;97.20;;;;;;1720395;28;20634;-75
2022/12/15 07:33:25;;;;;;;37.22;30.25;;;2.40;97.20;;;;;;1720496;28;20263;-75
2022/12/15 07:34:16;;;;;;;42.15;31.33;;;2.40;97.20;;;;;;1720521;28;20224;-75
2022/12/15 07:35:09;;;;;;;80.33;30.67;;;2.40;97.20;;;;;;1720331;28;20205;-75
2022/12/15 07:36:00;;;;;;;66.10;31.65;;;2.40;97.20;;;;;;1720510;28;20452;-75
2022/12/15 07:36:51;;;;;;;70.55;33.85;;;2.40;97.20;;;;;;1720235;28;20236;-75
2022/12/15 07:37:42;;;;;;;61.53;30.67;;;2.50;97.20;;;;;;1720496;28;20213;-75
2022/12/15 07:38:35;;;;;;;56.43;31.30;;;2.50;97.20;;;;;;1719863;28;20212;-75
2022/12/15 07:39:27;;;;;;;60.22;30.92;;;2.50;97.20;;;;;;1720413;28;20671;-75
2022/12/15 07:40:18;;;;;;;59.53;32.42;;;2.50;97.20;;;;;;1719898;28;20690;-75
2022/12/15 07:41:10;;;;;;;53.70;31.97;;;2.50;97.20;;;;;;1720304;28;20671;-75
2022/12/15 07:42:01;;;;;;;50.88;30.75;;;2.50;97.20;;;;;;1720474;28;20448;-75
2022/12/15 07:42:52;;;;;;;47.63;32.00;;;2.50;97.20;;;;;;1720274;28;20255;-75
2022/12/15 07:43:45;;;;;;;47.53;30.10;;;2.50;97.20;;;;;;1720264;28;20205;-75
2022/12/15 07:44:37;;;;;;;37.50;29.40;;;2.60;97.20;;;;;;1720505;28;20223;-75
2022/12/15 07:45:27;;;;;;;50.55;31.40;;;2.60;97.20;;;;;;1720340;28;20336;-75
2022/12/15 07:46:19;;;;;;;47.03;32.10;;;2.60;97.20;;;;;;1720518;28;20213;-75
2022/12/15 07:47:10;;;;;;;41.47;29.55;;;2.60;97.20;;;;;;1720192;28;20202;-75
2022/12/15 07:48:02;;;;;;;41.00;30.83;;;2.60;97.20;;;;;;1720397;28;20197;-75
2022/12/15 07:48:54;;;;;;;37.70;29.00;;;2.60;97.20;;;;;;1720220;28;20201;-75
2022/12/15 07:49:46;;;;;;;37.50;27.67;;;2.60;97.20;;;;;;1720319;28;20206;-75
2022/12/15 07:50:38;;;;;;;39.78;29.38;;;2.60;97.20;;;;;;1719887;28;20309;-75
2022/12/15 07:51:30;;;;;;;39.72;30.20;;;2.60;97.20;;;;;;1720337;28;20647;-75
2022/12/15 07:52:20;;;;;;;41.15;29.10;;;2.60;97.20;;;;;;1720393;28;20205;-75
2022/12/15 07:53:12;;;;;;;37.50;30.20;;;2.60;97.20;;;;;;1720450;28;20205;-75
2022/12/15 07:54:03;;;;;;;38.40;28.83;;;2.60;97.20;;;;;;1720360;28;20683;-75
2022/12/15 07:54:55;;;;;;;32.97;27.27;;;2.70;97.20;;;;;;1720455;28;20681;-75
2022/12/15 07:55:53;;;;;;;36.78;29.98;;;2.70;97.20;;;;;;1720331;28;20444;-75
2022/12/15 07:56:45;;;;;;;38.05;29.17;;;2.70;97.20;;;;;;1720163;28;20213;-75
2022/12/15 07:57:36;;;;;;;35.10;28.50;;;2.70;97.20;;;;;;1720399;28;20228;-75
2022/12/15 07:58:28;;;;;;;36.50;29.60;;;2.70;97.20;;;;;;1720055;28;20316;-75
2022/12/15 07:59:19;;;;;;;40.30;29.42;;;2.70;97.20;;;;;;1720307;28;20204;-75
2022/12/15 08:00:13;;;;;;;35.50;29.30;;;2.70;97.20;;;;;;1720120;28;20193;-75
2022/12/15 08:01:05;;;;;;;37.35;28.88;;;2.70;97.20;;;;;;1721658;28;20937;-75
2022/12/15 08:01:59;;;;;;;37.83;29.00;;;2.70;97.20;;;;;;1721624;28;20209;-75
2022/12/15 08:02:49;;;;;;;42.30;30.63;;;2.70;97.20;;;;;;1721642;28;20686;-75
2022/12/15 08:03:41;;;;;;;36.87;29.00;;;2.70;97.20;;;;;;1721603;28;20667;-75
2022/12/15 08:04:33;;;;;;;37.80;29.23;;;2.70;97.20;;;;;;1721719;28;20201;-75
2022/12/15 08:05:25;;;;;;;40.00;29.70;;;2.70;97.20;;;;;;1721657;28;20671;-75
2022/12/15 08:06:17;;;;;;;39.60;30.38;;;2.70;97.20;;;;;;1721681;28;20595;-75
2022/12/15 08:07:09;;;;;;;39.92;30.60;;;2.70;97.20;;;;;;1721459;28;20205;-75
2022/12/15 08:08:01;;;;;;;40.88;30.08;;;2.80;97.20;;;;;;1721639;28;20204;-75
2022/12/15 08:08:52;;;;;;;44.00;29.45;;;2.80;97.20;;;;;;1721465;28;20241;-75
2022/12/15 08:09:46;;;;;;;35.00;27.90;;;2.80;97.20;;;;;;1721417;28;20587;-75
2022/12/15 08:10:39;;;;;;;37.45;29.83;;;2.80;97.20;;;;;;1721087;28;20255;-75
2022/12/15 08:11:34;;;;;;;40.88;29.25;;;2.80;97.20;;;;;;1721465;28;20259;-75
2022/12/15 08:12:26;;;;;;;41.40;30.40;;;2.80;97.20;;;;;;1721638;28;20205;-75
2022/12/15 08:13:18;;;;;;;33.90;28.52;;;2.80;97.20;;;;;;1721731;28;20205;-75
2022/12/15 08:14:08;;;;;;;41.15;30.55;;;2.80;97.20;;;;;;1721572;28;20289;-75
2022/12/15 08:15:00;;;;;;;39.83;29.53;;;2.80;97.20;;;;;;1721644;28;20217;-75
2022/12/15 08:15:52;;;;;;;35.78;29.48;;;2.80;97.20;;;;;;1721729;28;20197;-75
2022/12/15 08:16:44;;;;;;;43.25;31.98;;;2.80;97.20;;;;;;1721418;28;20288;-75
2022/12/15 08:17:35;;;;;;;35.97;29.88;;;2.80;97.20;;;;;;1721543;28;20205;-75
2022/12/15 08:18:27;;;;;;;36.83;30.50;;;2.80;97.20;;;;;;1721322;28;20197;-75
2022/12/15 08:19:18;;;;;;;36.40;28.52;;;2.90;97.20;;;;;;1721724;28;20208;-75
2022/12/15 08:20:11;;;;;;;36.93;28.30;;;2.90;97.20;;;;;;1721061;28;20205;-75
2022/12/15 08:21:03;;;;;;;37.88;30.85;;;2.90;97.20;;;;;;1721621;28;20664;-75
2022/12/15 08:21:54;;;;;;;40.97;30.17;;;2.90;97.20;;;;;;1721515;28;20744;-75
2022/12/15 08:22:45;;;;;;;37.75;29.75;;;2.90;97.20;;;;;;1721617;28;20209;-75
2022/12/15 08:23:37;;;;;;;37.10;29.73;;;2.90;97.20;;;;;;1721617;28;20211;-75
2022/12/15 08:24:29;;;;;;;37.78;29.48;;;3.00;97.20;;;;;;1721505;28;20229;-75
2022/12/15 08:25:20;;;;;;;37.95;30.55;;;3.00;97.20;;;;;;1721688;28;20213;-75
2022/12/15 08:26:14;;;;;;;38.43;30.33;;;3.00;97.20;;;;;;1721471;28;20207;-75
2022/12/15 08:27:05;;;;;;;37.38;29.48;;;3.00;97.20;;;;;;1721321;28;20763;-75
2022/12/15 08:27:56;;;;;;;41.63;30.80;;;3.00;97.20;;;;;;1721599;28;20201;-75
2022/12/15 08:28:48;;;;;;;43.33;30.60;;;3.00;97.20;;;;;;1721190;28;20201;-75
2022/12/15 08:29:40;;;;;;;37.80;28.25;;;3.00;97.20;;;;;;1721677;28;20205;-75
2022/12/15 08:30:33;;;;;;;40.42;31.73;;;3.00;97.20;;;;;;1720587;28;20217;-75
2022/12/15 08:31:24;;;;;;;38.42;31.30;;;3.00;97.20;;;;;;1721368;28;20572;-75
2022/12/15 08:32:15;;;;;;;40.77;31.17;;;3.00;97.20;;;;;;1721550;28;20652;-75
2022/12/15 08:33:06;;;;;;;39.13;29.73;;;3.00;97.20;;;;;;1721492;28;20204;-75
2022/12/15 08:33:58;;;;;;;38.13;31.10;;;3.00;97.20;;;;;;1721540;28;20205;-75
2022/12/15 08:34:49;;;;;;;37.08;30.00;;;3.00;97.20;;;;;;1721492;28;20212;-75
2022/12/15 08:35:43;;;;;;;39.30;31.50;;;3.00;97.20;;;;;;1721590;28;20201;-75
2022/12/15 08:36:33;;;;;;;38.75;30.27;;;3.00;97.20;;;;;;1721451;28;20922;-75
2022/12/15 08:37:25;;;;;;;38.87;30.33;;;3.00;97.20;;;;;;1721371;28;20663;-75
2022/12/15 08:38:16;;;;;;;39.25;30.20;;;3.00;97.20;;;;;;1721314;28;20440;-75
2022/12/15 08:39:08;;;;;;;41.00;31.10;;;3.10;97.20;;;;;;1721066;28;20194;-75
2022/12/15 08:40:00;;;;;;;45.05;31.50;;;3.10;97.20;;;;;;1721079;28;20585;-75
2022/12/15 08:40:50;;;;;;;41.13;31.75;;;3.10;97.20;;;;;;1721331;28;20584;-75
2022/12/15 08:41:42;;;;;;;36.97;30.20;;;3.10;97.20;;;;;;1721382;28;20244;-75
2022/12/15 08:42:34;;;;;;;38.08;29.48;;;3.20;97.20;;;;;;1721476;28;20227;-75
2022/12/15 08:43:25;;;;;;;41.47;30.08;;;3.20;97.20;;;;;;1721300;28;20209;-75
2022/12/15 08:44:16;;;;;;;35.30;29.70;;;3.20;97.20;;;;;;1721419;28;20233;-75
2022/12/15 08:45:08;;;;;;;38.60;30.05;;;3.30;97.20;;;;;;1721334;28;20213;-75
2022/12/15 08:46:00;;;;;;;39.00;31.23;;;3.30;97.20;;;;;;1721471;28;20659;-75
2022/12/15 08:46:51;;;;;;;39.35;30.52;;;3.30;97.20;;;;;;1721104;28;20208;-75
2022/12/15 08:47:42;;;;;;;41.93;31.30;;;3.30;97.20;;;;;;1721328;28;20211;-75
2022/12/15 08:48:34;;;;;;;35.30;29.27;;;3.30;97.20;;;;;;1721172;28;20201;-75
2022/12/15 08:49:25;;;;;;;39.50;30.25;;;3.30;97.20;;;;;;1721344;28;20201;-75
2022/12/15 08:50:17;;;;;;;38.88;30.27;;;3.30;97.20;;;;;;1720802;28;20213;-75
2022/12/15 08:51:10;;;;;;;37.95;30.80;;;3.40;97.20;;;;;;1721349;28;20208;-75
2022/12/15 08:52:02;;;;;;;40.65;31.25;;;3.40;97.20;;;;;;1721339;28;20359;-76
2022/12/15 08:52:53;;;;;;;35.80;30.30;;;3.40;97.20;;;;;;1721512;28;20623;-76
2022/12/15 08:53:45;;;;;;;37.87;30.67;;;3.40;97.20;;;;;;1721255;28;20598;-75
2022/12/15 08:54:37;;;;;;;41.72;30.58;;;3.40;97.20;;;;;;1721418;28;20204;-75
2022/12/15 08:55:27;;;;;;;41.03;30.80;;;3.40;97.20;;;;;;1721305;28;20205;-75
2022/12/15 08:56:21;;;;;;;39.83;30.50;;;3.40;97.20;;;;;;1721370;28;20209;-75
2022/12/15 08:57:13;;;;;;;38.10;30.70;;;3.40;97.20;;;;;;1721188;28;20255;-75
2022/12/15 08:58:04;;;;;;;39.67;30.65;;;3.50;97.20;;;;;;1721330;28;20217;-75
2022/12/15 08:58:58;;;;;;;38.40;29.87;;;3.50;97.20;;;;;;1721144;28;20276;-75
2022/12/15 08:59:48;;;;;;;53.88;29.80;;;3.50;97.20;;;;;;1721405;28;20205;-75
2022/12/15 09:00:40;;;;;;;40.50;29.83;;;3.50;97.20;;;;;;1720530;28;20221;-75
2022/12/15 09:01:32;;;;;;;37.92;29.38;;;3.50;97.20;;;;;;1721145;28;20217;-75
2022/12/15 09:02:24;;;;;;;39.25;30.02;;;3.50;97.20;;;;;;1721345;28;20698;-75
2022/12/15 09:03:14;;;;;;;37.35;28.67;;;3.60;97.20;;;;;;1721393;28;20209;-75
2022/12/15 09:04:06;;;;;;;36.30;27.27;;;3.60;97.20;;;;;;1721155;28;20211;-75
2022/12/15 09:04:57;;;;;;;38.15;28.52;;;3.60;97.20;;;;;;1721381;28;20205;-75
2022/12/15 09:05:49;;;;;;;35.20;28.70;;;3.70;97.20;;;;;;1721198;28;20201;-75
2022/12/15 09:06:43;;;;;;;35.25;28.80;;;3.70;97.20;;;;;;1721035;28;20244;-75
2022/12/15 09:07:34;;;;;;;34.47;29.05;;;3.70;97.20;;;;;;1721370;28;20205;-75
2022/12/15 09:08:25;;;;;;;38.63;30.20;;;3.70;97.20;;;;;;1720997;28;20201;-75
2022/12/15 09:09:17;;;;;;;39.30;29.20;;;3.70;97.20;;;;;;1721361;28;20197;-75
2022/12/15 09:10:08;;;;;;;36.95;28.70;;;3.70;97.20;;;;;;1720673;28;20201;-75
2022/12/15 09:11:01;;;;;;;35.80;29.30;;;3.80;97.20;;;;;;1721322;28;20713;-75
2022/12/15 09:11:52;;;;;;;36.65;30.83;;;3.80;97.20;;;;;;1720083;28;20455;-75
2022/12/15 09:12:43;;;;;;;37.40;30.65;;;3.80;97.20;;;;;;1721083;28;20209;-75
2022/12/15 09:13:35;;;;;;;41.63;30.33;;;3.90;97.20;;;;;;1721316;28;20205;-75
2022/12/15 09:14:26;;;;;;;36.05;28.30;;;3.90;97.20;;;;;;1721304;28;20201;-75
2022/12/15 09:15:18;;;;;;;36.40;30.37;;;3.90;97.20;;;;;;1721328;28;20209;-75
2022/12/15 09:16:12;;;;;;;36.22;30.30;;;3.90;97.20;;;;;;1721317;28;20209;-75
2022/12/15 09:17:04;;;;;;;37.40;29.75;;;4.00;97.20;;;;;;1720948;28;20205;-75
2022/12/15 09:17:54;;;;;;;34.80;28.80;;;4.00;97.20;;;;;;1721409;28;20212;-75
2022/12/15 09:18:48;;;;;;;36.43;28.70;;;4.00;97.20;;;;;;1720933;28;21439;-75
2022/12/15 09:19:39;;;;;;;36.10;28.88;;;4.10;97.20;;;;;;1721235;28;20232;-75
2022/12/15 09:20:30;;;;;;;32.67;27.90;;;4.10;97.20;;;;;;1720595;28;20231;-75
2022/12/15 09:21:24;;;;;;;30.88;27.50;;;4.10;97.20;;;;;;1721218;28;20690;-75
2022/12/15 09:22:17;;;;;;;34.00;28.23;;;4.20;97.20;;;;;;1721257;28;20201;-75
2022/12/15 09:23:08;;;;;;;37.33;28.88;;;4.20;97.20;;;;;;1721107;28;20240;-75
2022/12/15 09:24:02;;;;;;;36.20;28.07;;;4.20;97.20;;;;;;1721327;28;20685;-75
2022/12/15 09:24:53;;;;;;;34.25;29.02;;;4.30;97.20;;;;;;1721179;28;20713;-75
2022/12/15 09:25:45;;;;;;;35.85;28.45;;;4.30;97.20;;;;;;1721100;28;20212;-75
2022/12/15 09:26:37;;;;;;;37.72;27.92;;;4.30;97.20;;;;;;1721220;28;20655;-75
2022/12/15 09:27:29;;;;;;;35.20;29.35;;;4.40;97.20;;;;;;1721086;28;20216;-75
2022/12/15 09:28:21;;;;;;;40.08;28.88;;;4.50;97.20;;;;;;1721172;28;20288;-75
2022/12/15 09:29:12;;;;;;;35.13;28.10;;;4.60;97.20;;;;;;1720968;28;20197;-75
2022/12/15 09:30:05;;;;;;;38.60;28.25;;;4.60;97.20;;;;;;1720745;28;20605;-75
2022/12/15 09:31:01;;;;;;;36.72;29.40;;;4.70;97.20;;;;;;1721074;28;20225;-75
2022/12/15 09:31:53;;;;;;;38.42;28.63;;;4.80;97.20;;;;;;1721065;28;20185;-75
2022/12/15 09:32:43;;;;;;;36.25;28.10;;;5.00;97.20;;;;;;1721119;28;20213;-75
2022/12/15 09:33:36;;;;;;;33.13;28.30;;;5.10;97.20;;;;;;1721265;28;20205;-75
2022/12/15 09:34:28;;;;;;;41.28;28.13;;;5.20;97.20;;;;;;1721028;28;20549;-75
2022/12/15 09:35:19;;;;;;;37.25;29.23;;;5.30;97.20;;;;;;1721084;28;20216;-75
2022/12/15 09:36:12;;;;;;;33.50;27.87;;;5.40;97.20;;;;;;1720966;28;20240;-75
2022/12/15 09:37:04;;;;;;;31.73;27.10;;;5.60;97.20;;;;;;1720835;28;21257;-75
2022/12/15 09:37:57;;;;;;;36.05;28.67;;;5.70;97.20;;;;;;1721238;28;20205;-75
2022/12/15 09:38:49;;;;;;;31.70;26.38;;;5.80;97.20;;;;;;1720794;28;20197;-75
2022/12/15 09:39:40;;;;;;;32.13;27.80;;;6.00;97.20;;;;;;1721245;28;20205;-75
2022/12/15 09:40:32;;;;;;;32.22;27.90;;;6.00;97.20;;;;;;1720517;28;20237;-75
2022/12/15 09:41:26;;;;;;;34.35;28.10;;;6.10;97.20;;;;;;1720879;28;20201;-75
2022/12/15 09:42:23;;;;;;;35.35;28.98;;;6.10;97.20;;;;;;1721181;28;20794;-75
2022/12/15 09:43:19;;;;;;;31.35;25.75;;;6.00;97.20;;;;;;1721242;28;20198;-75
2022/12/15 09:44:13;;;;;;;34.40;27.08;;;6.00;97.20;;;;;;1721014;28;20216;-75
2022/12/15 09:45:13;;;;;;;33.00;27.33;;;5.90;97.20;;;;;;1720923;28;20766;-75
2022/12/15 09:46:10;;;;;;;37.50;27.00;;;5.80;97.20;;;;;;1721008;28;20646;-75
2022/12/15 09:47:12;;;;;;;32.38;25.70;;;5.70;97.20;;;;;;1720880;28;20209;-75
2022/12/15 09:48:10;;;;;;;41.78;26.98;;;5.60;97.20;;;;;;1721053;28;20213;-75
2022/12/15 09:49:09;;;;;;;37.42;27.80;;;5.60;97.20;;;;;;1720778;28;20196;-75
2022/12/15 09:50:04;;;;;;;37.17;28.45;;;5.50;97.20;;;;;;1720306;28;20205;-75
2022/12/15 09:50:56;;;;;;;33.85;28.23;;;5.50;97.20;;;;;;1721033;28;20229;-75
2022/12/15 09:51:53;;;;;;;38.33;28.63;;;5.50;97.20;;;;;;1720828;28;20197;-75
2022/12/15 09:52:48;;;;;;;37.35;28.73;;;5.40;97.20;;;;;;1720864;28;20200;-75
2022/12/15 09:53:41;;;;;;;36.28;28.15;;;5.40;97.20;;;;;;1721022;28;20209;-75
2022/12/15 09:54:34;;;;;;;32.63;26.52;;;5.30;97.20;;;;;;1721028;28;20205;-75
2022/12/15 09:55:28;;;;;;;32.55;27.02;;;5.30;97.20;;;;;;1720883;28;20216;-75
2022/12/15 09:56:22;;;;;;;33.53;28.67;;;5.30;97.20;;;;;;1721061;28;20582;-75
2022/12/15 09:57:22;;;;;;;36.78;27.67;;;5.30;97.20;;;;;;1720756;28;20637;-75
2022/12/15 09:58:24;;;;;;;38.95;28.52;;;5.30;97.20;;;;;;1721059;28;20209;-75
2022/12/15 09:59:28;;;;;;;35.75;28.40;;;5.20;97.20;;;;;;1720709;28;20197;-75
2022/12/15 10:00:23;;;;;;;36.03;27.83;;;5.20;97.20;;;;;;1720460;28;20272;-75
2022/12/15 10:01:26;;;;;;;37.25;28.15;;;5.20;97.20;;;;;;1720964;28;20208;-75
2022/12/15 10:02:36;;;;;;;36.20;29.00;;;5.20;97.20;;;;;;1721019;28;20275;-75
2022/12/15 10:03:35;;;;;;;35.72;29.98;;;5.20;97.20;;;;;;1720935;28;20714;-75
2022/12/15 10:04:36;;;;;;;32.30;27.75;;;5.10;97.20;;;;;;1720856;28;20197;-75
2022/12/15 10:05:42;;;;;;;35.85;28.48;;;5.00;97.20;;;;;;1720804;28;20205;-75
2022/12/15 10:06:38;;;;;;;32.10;27.20;;;5.00;97.20;;;;;;1720836;28;20194;-75
2022/12/15 10:07:35;;;;;;;33.17;29.17;;;4.90;97.20;;;;;;1720847;28;20228;-75
2022/12/15 10:08:30;;;;;;;36.50;27.48;;;4.90;97.20;;;;;;1720855;28;20206;-75
2022/12/15 10:09:27;;;;;;;32.08;27.35;;;4.80;97.20;;;;;;1720086;28;20206;-75
2022/12/15 10:10:24;;;;;;;32.83;27.90;;;4.80;97.20;;;;;;1720461;28;20190;-75
2022/12/15 10:11:38;;;;;;;33.63;28.10;;;4.70;97.20;;;;;;1720336;28;20284;-75
2022/12/15 10:12:36;;;;;;;31.58;26.70;;;4.70;97.20;;;;;;1720788;28;20622;-75
2022/12/15 10:13:34;;;;;;;34.28;28.58;;;4.70;97.20;;;;;;1720868;28;20239;-75
2022/12/15 10:14:32;;;;;;;36.13;28.95;;;4.60;97.20;;;;;;1721034;28;20395;-75
2022/12/15 10:15:26;;;;;;;35.78;28.30;;;4.60;97.20;;;;;;1721055;28;20209;-75
2022/12/15 10:16:24;;;;;;;36.58;29.42;;;4.60;97.20;;;;;;1720901;28;20252;-75
2022/12/15 10:17:22;;;;;;;37.05;28.98;;;4.60;97.20;;;;;;1720717;28;20644;-75
2022/12/15 10:18:19;;;;;;;32.28;27.75;;;4.50;97.20;;;;;;1720909;28;20213;-75
2022/12/15 10:19:18;;;;;;;36.70;28.20;;;4.50;97.20;;;;;;1720557;28;20190;-75
2022/12/15 10:20:16;;;;;;;36.13;28.55;;;4.50;97.20;;;;;;1720364;28;20427;-75
2022/12/15 10:21:12;;;;;;;31.65;27.90;;;4.50;97.20;;;;;;1720711;28;20201;-75
2022/12/15 10:22:04;;;;;;;32.50;28.00;;;4.50;97.20;;;;;;1720881;28;20205;-75
2022/12/15 10:23:01;;;;;;;30.90;27.10;;;4.50;97.20;;;;;;1720586;28;20667;-75
2022/12/15 10:23:53;;;;;;;33.40;28.02;;;4.50;97.20;;;;;;1720797;28;20690;-75
2022/12/15 10:24:46;;;;;;;32.40;28.60;;;4.50;97.20;;;;;;1720745;28;20223;-75
2022/12/15 10:25:37;;;;;;;35.63;28.05;;;4.50;97.20;;;;;;1720778;28;20205;-75
2022/12/15 10:26:34;;;;;;;34.05;27.60;;;4.50;97.20;;;;;;1720751;28;20208;-75
2022/12/15 10:27:53;;;;;;;33.55;27.73;;;4.60;97.20;;;;;;1720609;28;20202;-75
2022/12/15 10:29:07;;;;;;;31.98;27.05;;;4.60;97.20;;;;;;1720464;28;20269;-75
2022/12/15 10:30:02;;;;;;;34.45;28.35;;;4.60;97.20;;;;;;1720290;28;20550;-75
2022/12/15 10:30:57;;;;;;;37.72;30.25;;;4.60;97.20;;;;;;1720599;28;20271;-75